createdAt,value
2023-02-14T00:00:47.100Z,96730.03
2023-02-14T00:03:13.489Z,96726.03
2023-02-14T00:05:39.923Z,96721.69
2023-02-14T00:08:06.301Z,96722.94
2023-02-14T00:10:32.720Z,96724.44
2023-02-14T00:12:59.119Z,96715.47
2023-02-14T00:15:25.555Z,96719.47
2023-02-14T00:17:51.987Z,96719.97
2023-02-14T00:20:18.389Z,96720.91
2023-02-14T00:22:44.802Z,96712.75
2023-02-14T00:25:11.196Z,96720.91
2023-02-14T00:27:37.598Z,96715.47
2023-02-14T00:30:04.022Z,96718.75
2023-02-14T00:32:30.480Z,96721.22
2023-02-14T00:34:56.869Z,96713.66
2023-02-14T00:37:23.237Z,96721.59
2023-02-14T00:39:49.625Z,96718.66
2023-02-14T00:42:16.010Z,96715.56
2023-02-14T00:44:42.389Z,96705.34
2023-02-14T00:47:08.780Z,96705.97
2023-02-14T00:49:37.895Z,96703.22
2023-02-14T00:52:05.382Z,96698.53
2023-02-14T00:54:31.755Z,96692.56
2023-02-14T00:56:58.184Z,96699.94
2023-02-14T00:59:24.622Z,96699.94
2023-02-14T01:01:51.000Z,96700.59
2023-02-14T01:04:17.391Z,96701.81
2023-02-14T01:06:43.778Z,96707.97
2023-02-14T01:09:10.170Z,96702.41
2023-02-14T01:11:36.552Z,96701.84
2023-02-14T01:14:04.065Z,96697.41
2023-02-14T01:16:30.486Z,96706.13
2023-02-14T01:18:56.945Z,96704.91
2023-02-14T01:21:23.351Z,96705.19
2023-02-14T01:23:49.731Z,96705.47
2023-02-14T01:26:16.169Z,96705.31
2023-02-14T01:28:42.588Z,96711.94
2023-02-14T01:31:08.993Z,96706.84
2023-02-14T01:33:35.389Z,96707.63
2023-02-14T01:36:01.752Z,96699.28
2023-02-14T01:38:28.133Z,96699.44
2023-02-14T01:40:54.599Z,96687.06
2023-02-14T01:43:21.015Z,96692.00
2023-02-14T01:45:47.405Z,96692.59
2023-02-14T01:48:13.792Z,96687.97
2023-02-14T01:50:40.189Z,96688.72
2023-02-14T01:53:06.622Z,96689.06
2023-02-14T01:55:33.022Z,96688.28
2023-02-14T01:57:59.409Z,96689.06
2023-02-14T02:00:25.831Z,96689.97
2023-02-14T02:02:52.217Z,96695.41
2023-02-14T02:05:18.595Z,96689.06
2023-02-14T02:07:44.990Z,96688.28
2023-02-14T02:10:11.368Z,96691.84
2023-02-14T02:12:37.754Z,96686.28
2023-02-14T02:15:04.125Z,96688.91
2023-02-14T02:17:30.554Z,96690.91
2023-02-14T02:19:56.923Z,96682.56
2023-02-14T02:22:23.318Z,96677.94
2023-02-14T02:24:49.790Z,96682.28
2023-02-14T02:27:16.206Z,96677.66
2023-02-14T02:29:42.616Z,96681.38
2023-02-14T02:32:09.115Z,96676.00
2023-02-14T02:34:35.567Z,96673.81
2023-02-14T02:37:01.936Z,96677.22
2023-02-14T02:39:28.316Z,96669.81
2023-02-14T02:41:54.678Z,96671.81
2023-02-14T02:44:21.031Z,96665.03
2023-02-14T02:46:47.424Z,96664.25
2023-02-14T02:49:16.989Z,96662.84
2023-02-14T02:51:43.405Z,96665.66
2023-02-14T02:54:09.809Z,96663.47
2023-02-14T02:56:36.214Z,96666.56
2023-02-14T02:59:02.633Z,96669.97
2023-02-14T03:01:29.064Z,96668.09
2023-02-14T03:03:55.508Z,96665.63
2023-02-14T03:06:21.878Z,96657.59
2023-02-14T03:08:48.293Z,96658.81
2023-02-14T03:11:14.704Z,96654.03
2023-02-14T03:13:41.090Z,96661.13
2023-02-14T03:16:07.523Z,96666.41
2023-02-14T03:18:33.934Z,96654.97
2023-02-14T03:21:00.601Z,96653.13
2023-02-14T03:23:27.211Z,96659.91
2023-02-14T03:25:53.582Z,96655.44
2023-02-14T03:28:20.037Z,96641.81
2023-02-14T03:30:46.512Z,96648.00
2023-02-14T03:33:12.965Z,96649.69
2023-02-14T03:35:39.352Z,96651.53
2023-02-14T03:38:05.735Z,96651.53
2023-02-14T03:40:32.182Z,96656.34
2023-02-14T03:42:58.573Z,96659.78
2023-02-14T03:45:25.049Z,96653.44
2023-02-14T03:47:51.442Z,96649.25
2023-02-14T03:50:17.911Z,96654.06
2023-02-14T03:52:44.325Z,96653.59
2023-02-14T03:55:10.815Z,96652.22
2023-02-14T03:57:37.310Z,96658.25
2023-02-14T04:00:03.685Z,96659.06
2023-02-14T04:02:30.090Z,96661.22
2023-02-14T04:04:56.458Z,96662.59
2023-02-14T04:07:22.848Z,96665.22
2023-02-14T04:09:49.235Z,96670.03
2023-02-14T04:12:16.932Z,96661.22
2023-02-14T04:14:44.641Z,96666.66
2023-02-14T04:17:11.036Z,96659.38
2023-02-14T04:19:37.471Z,96656.28
2023-02-14T04:22:03.886Z,96658.47
2023-02-14T04:24:32.669Z,96648.09
2023-02-14T04:26:59.096Z,96649.81
2023-02-14T04:29:25.494Z,96647.63
2023-02-14T04:31:51.979Z,96639.00
2023-02-14T04:34:19.853Z,96642.84
2023-02-14T04:36:46.248Z,96642.56
2023-02-14T04:39:12.629Z,96642.09
2023-02-14T04:41:39.042Z,96634.84
2023-02-14T04:44:05.440Z,96640.84
2023-02-14T04:46:31.884Z,96640.53
2023-02-14T04:48:58.332Z,96636.06
2023-02-14T04:51:27.306Z,96634.66
2023-02-14T04:53:53.934Z,96631.41
2023-02-14T04:56:20.326Z,96634.81
2023-02-14T04:58:49.052Z,96634.22
2023-02-14T05:01:15.485Z,96636.53
2023-02-14T05:03:41.974Z,96643.50
2023-02-14T05:06:08.341Z,96637.47
2023-02-14T05:08:34.760Z,96638.53
2023-02-14T05:11:01.373Z,96635.91
2023-02-14T05:13:27.871Z,96642.25
2023-02-14T05:15:54.421Z,96641.19
2023-02-14T05:18:20.824Z,96632.06
2023-02-14T05:20:47.179Z,96644.75
2023-02-14T05:23:13.734Z,96643.34
2023-02-14T05:25:40.211Z,96650.16
2023-02-14T05:28:06.676Z,96654.63
2023-02-14T05:30:33.182Z,96649.53
2023-02-14T05:32:59.624Z,96650.63
2023-02-14T05:35:26.040Z,96656.03
2023-02-14T05:37:52.437Z,96654.03
2023-02-14T05:40:18.827Z,96650.31
2023-02-14T05:42:45.211Z,96648.00
2023-02-14T05:45:12.994Z,96649.22
2023-02-14T05:47:39.384Z,96643.81
2023-02-14T05:50:05.766Z,96651.09
2023-02-14T05:52:32.166Z,96655.88
2023-02-14T05:54:58.572Z,96653.25
2023-02-14T05:57:24.981Z,96646.13
2023-02-14T05:59:51.394Z,96648.00
2023-02-14T06:02:17.864Z,96651.09
2023-02-14T06:04:44.324Z,96638.88
2023-02-14T06:07:10.726Z,96638.09
2023-02-14T06:09:37.135Z,96645.81
2023-02-14T06:12:03.627Z,96649.22
2023-02-14T06:14:30.050Z,96648.28
2023-02-14T06:16:56.534Z,96645.03
2023-02-14T06:19:22.986Z,96646.44
2023-02-14T06:21:49.359Z,96660.00
2023-02-14T06:24:15.738Z,96654.75
2023-02-14T06:26:42.142Z,96653.69
2023-02-14T06:29:08.531Z,96648.59
2023-02-14T06:31:34.993Z,96652.75
2023-02-14T06:34:01.447Z,96652.75
2023-02-14T06:36:27.841Z,96649.50
2023-02-14T06:38:54.202Z,96646.88
2023-02-14T06:41:20.570Z,96646.13
2023-02-14T06:43:46.967Z,96647.97
2023-02-14T06:46:13.337Z,96650.44
2023-02-14T06:48:39.728Z,96645.97
2023-02-14T06:51:06.103Z,96648.59
2023-02-14T06:53:32.483Z,96650.75
2023-02-14T06:55:58.889Z,96647.81
2023-02-14T06:58:25.286Z,96651.19
2023-02-14T07:00:51.671Z,96653.00
2023-02-14T07:03:18.024Z,96653.19
2023-02-14T07:05:44.421Z,96646.56
2023-02-14T07:08:10.800Z,96655.53
2023-02-14T07:10:37.208Z,96649.97
2023-02-14T07:13:03.591Z,96648.13
2023-02-14T07:15:30.068Z,96660.94
2023-02-14T07:17:56.473Z,96653.22
2023-02-14T07:20:22.859Z,96660.94
2023-02-14T07:22:49.289Z,96657.06
2023-02-14T07:25:15.715Z,96654.31
2023-02-14T07:27:42.175Z,96658.78
2023-02-14T07:30:08.645Z,96651.97
2023-02-14T07:32:35.095Z,96644.88
2023-02-14T07:35:01.472Z,96651.53
2023-02-14T07:37:27.854Z,96650.47
2023-02-14T07:39:54.338Z,96657.41
2023-02-14T07:42:20.706Z,96651.53
2023-02-14T07:44:47.088Z,96653.09
2023-02-14T07:47:13.450Z,96652.94
2023-02-14T07:49:39.867Z,96650.78
2023-02-14T07:52:06.243Z,96652.78
2023-02-14T07:54:32.605Z,96654.03
2023-02-14T07:56:58.994Z,96654.94
2023-02-14T07:59:26.131Z,96651.22
2023-02-14T08:01:52.680Z,96654.91
2023-02-14T08:04:19.127Z,96657.06
2023-02-14T08:06:45.518Z,96653.06
2023-02-14T08:09:11.933Z,96659.84
2023-02-14T08:11:38.357Z,96654.25
2023-02-14T08:14:04.783Z,96649.78
2023-02-14T08:16:31.254Z,96647.28
2023-02-14T08:18:57.672Z,96650.44
2023-02-14T08:21:24.060Z,96647.38
2023-02-14T08:23:50.442Z,96653.41
2023-02-14T08:26:16.854Z,96651.91
2023-02-14T08:28:43.220Z,96649.16
2023-02-14T08:31:09.629Z,96644.38
2023-02-14T08:33:36.023Z,96650.25
2023-02-14T08:36:02.431Z,96646.56
2023-02-14T08:38:28.806Z,96642.22
2023-02-14T08:40:55.176Z,96641.00
2023-02-14T08:43:21.546Z,96637.94
2023-02-14T08:45:47.937Z,96639.41
2023-02-14T08:48:14.339Z,96647.72
2023-02-14T08:50:40.740Z,96652.97
2023-02-14T08:53:07.142Z,96649.38
2023-02-14T08:55:33.531Z,96638.44
2023-02-14T08:57:59.954Z,96648.75
2023-02-14T09:00:26.423Z,96650.06
2023-02-14T09:02:52.840Z,96651.44
2023-02-14T09:05:19.203Z,96650.56
2023-02-14T09:07:45.594Z,96647.28
2023-02-14T09:10:12.087Z,96645.06
2023-02-14T09:12:38.478Z,96646.41
2023-02-14T09:15:04.880Z,96643.00
2023-02-14T09:17:31.305Z,96650.59
2023-02-14T09:19:57.719Z,96643.72
2023-02-14T09:22:24.113Z,96653.69
2023-02-14T09:24:50.516Z,96649.16
2023-02-14T09:27:16.894Z,96651.66
2023-02-14T09:29:43.321Z,96651.31
2023-02-14T09:32:09.771Z,96649.50
2023-02-14T09:34:36.195Z,96646.03
2023-02-14T09:37:03.216Z,96637.56
2023-02-14T09:39:30.698Z,96640.25
2023-02-14T09:41:57.083Z,96637.25
2023-02-14T09:44:23.493Z,96647.25
2023-02-14T09:46:49.893Z,96650.97
2023-02-14T09:49:16.443Z,96656.34
2023-02-14T09:51:42.877Z,96645.81
2023-02-14T09:54:09.284Z,96648.75
2023-02-14T09:56:50.385Z,96647.84
2023-02-14T09:59:17.561Z,96649.41
2023-02-14T10:01:43.941Z,96639.19
2023-02-14T10:04:10.303Z,96641.19
2023-02-14T10:06:36.729Z,96642.59
2023-02-14T10:09:03.141Z,96639.16
2023-02-14T10:11:29.499Z,96639.03
2023-02-14T10:13:55.877Z,96635.66
2023-02-14T10:16:22.372Z,96640.25
2023-02-14T10:18:48.816Z,96630.03
2023-02-14T10:21:15.246Z,96637.09
2023-02-14T10:23:41.663Z,96630.28
2023-02-14T10:26:08.079Z,96629.50
2023-02-14T10:28:34.496Z,96634.88
2023-02-14T10:31:01.288Z,96630.72
2023-02-14T10:33:27.883Z,96623.69
2023-02-14T10:35:54.250Z,96631.97
2023-02-14T10:38:20.645Z,96618.41
2023-02-14T10:40:47.027Z,96612.63
2023-02-14T10:43:13.435Z,96619.88
2023-02-14T10:45:39.855Z,96623.00
2023-02-14T10:48:06.287Z,96612.41
2023-02-14T10:50:32.703Z,96608.31
2023-02-14T10:52:59.099Z,96616.44
2023-02-14T10:55:33.031Z,96611.47
2023-02-14T10:57:59.483Z,96610.13
2023-02-14T11:00:25.865Z,96608.09
2023-02-14T11:02:52.249Z,96599.06
2023-02-14T11:05:18.674Z,96597.94
2023-02-14T11:07:45.091Z,96589.22
2023-02-14T11:10:11.483Z,96580.94
2023-02-14T11:12:37.915Z,96579.00
2023-02-14T11:15:04.386Z,96572.63
2023-02-14T11:17:30.770Z,96571.34
2023-02-14T11:19:57.194Z,96566.09
2023-02-14T11:22:23.585Z,96552.28
2023-02-14T11:24:49.967Z,96558.25
2023-02-14T11:27:16.377Z,96556.84
2023-02-14T11:29:42.736Z,96551.19
2023-02-14T11:32:09.170Z,96554.22
2023-02-14T11:34:35.568Z,96550.88
2023-02-14T11:37:01.954Z,96545.78
2023-02-14T11:39:28.352Z,96539.78
2023-02-14T11:41:54.746Z,96539.25
2023-02-14T11:44:21.150Z,96542.09
2023-02-14T11:46:53.073Z,96533.34
2023-02-14T11:49:20.112Z,96532.56
2023-02-14T11:51:46.491Z,96522.13
2023-02-14T11:54:12.910Z,96527.22
2023-02-14T11:56:39.299Z,96528.97
2023-02-14T11:59:05.849Z,96513.88
2023-02-14T12:01:35.103Z,96516.41
2023-02-14T12:04:01.554Z,96514.31
2023-02-14T12:06:27.931Z,96527.00
2023-02-14T12:08:54.302Z,96517.66
2023-02-14T12:11:20.728Z,96519.47
2023-02-14T12:13:47.109Z,96508.50
2023-02-14T12:16:13.473Z,96502.19
2023-02-14T12:18:39.867Z,96502.69
2023-02-14T12:21:06.353Z,96499.41
2023-02-14T12:23:32.775Z,96493.03
2023-02-14T12:25:59.184Z,96482.97
2023-02-14T12:28:25.569Z,96479.06
2023-02-14T12:30:52.019Z,96480.78
2023-02-14T12:33:18.472Z,96471.88
2023-02-14T12:35:44.844Z,96466.75
2023-02-14T12:38:11.230Z,96467.28
2023-02-14T12:40:37.599Z,96456.44
2023-02-14T12:43:04.049Z,96455.63
2023-02-14T12:45:30.441Z,96449.44
2023-02-14T12:47:56.844Z,96458.94
2023-02-14T12:50:23.206Z,96447.03
2023-02-14T12:52:49.570Z,96448.78
2023-02-14T12:55:15.992Z,96443.63
2023-02-14T12:57:42.375Z,96438.03
2023-02-14T13:00:08.766Z,96433.44
2023-02-14T13:02:35.207Z,96429.31
2023-02-14T13:05:01.654Z,96422.53
2023-02-14T13:07:28.061Z,96423.38
2023-02-14T13:09:54.638Z,96418.72
2023-02-14T13:12:21.010Z,96404.31
2023-02-14T13:14:47.378Z,96401.41
2023-02-14T13:17:13.734Z,96397.28
2023-02-14T13:19:40.103Z,96399.59
2023-02-14T13:22:06.473Z,96396.03
2023-02-14T13:24:32.874Z,96394.03
2023-02-14T13:26:59.271Z,96397.03
2023-02-14T13:29:25.647Z,96392.31
2023-02-14T13:31:52.157Z,96392.81
2023-02-14T13:34:18.554Z,96392.06
2023-02-14T13:36:44.946Z,96386.91
2023-02-14T13:39:11.365Z,96398.19
2023-02-14T13:41:37.749Z,96392.38
2023-02-14T13:44:04.156Z,96395.94
2023-02-14T13:46:30.624Z,96397.88
2023-02-14T13:48:57.129Z,96391.47
2023-02-14T13:51:23.506Z,96386.81
2023-02-14T13:53:49.878Z,96386.59
2023-02-14T13:56:16.320Z,96378.03
2023-02-14T13:58:42.752Z,96374.56
2023-02-14T14:01:09.196Z,96375.81
2023-02-14T14:03:35.748Z,96375.25
2023-02-14T14:06:02.616Z,96371.81
2023-02-14T14:08:30.582Z,96371.44
2023-02-14T14:10:57.104Z,96365.69
2023-02-14T14:13:23.525Z,96367.94
2023-02-14T14:15:49.944Z,96365.63
2023-02-14T14:18:16.339Z,96351.19
2023-02-14T14:20:42.709Z,96351.91
2023-02-14T14:23:09.093Z,96344.16
2023-02-14T14:25:35.469Z,96344.84
2023-02-14T14:28:02.105Z,96345.00
2023-02-14T14:30:28.557Z,96338.16
2023-02-14T14:32:55.067Z,96337.41
2023-02-14T14:35:21.509Z,96340.09
2023-02-14T14:37:47.922Z,96343.38
2023-02-14T14:40:14.309Z,96338.59
2023-02-14T14:42:40.739Z,96343.56
2023-02-14T14:45:07.123Z,96340.91
2023-02-14T14:47:33.494Z,96343.28
2023-02-14T14:49:59.903Z,96341.19
2023-02-14T14:52:26.298Z,96336.66
2023-02-14T14:54:52.722Z,96343.78
2023-02-14T14:57:19.135Z,96342.19
2023-02-14T14:59:45.526Z,96340.09
2023-02-14T15:02:11.894Z,96335.63
2023-02-14T15:04:38.311Z,96328.16
2023-02-14T15:07:04.755Z,96322.19
2023-02-14T15:09:31.161Z,96319.69
2023-02-14T15:11:57.521Z,96323.25
2023-02-14T15:14:23.919Z,96321.31
2023-02-14T15:16:50.314Z,96323.34
2023-02-14T15:19:16.731Z,96326.00
2023-02-14T15:21:44.698Z,96316.94
2023-02-14T15:24:11.212Z,96321.25
2023-02-14T15:26:37.603Z,96314.34
2023-02-14T15:29:04.033Z,96319.56
2023-02-14T15:31:30.555Z,96312.59
2023-02-14T15:33:57.029Z,96310.00
2023-02-14T15:36:25.597Z,96311.53
2023-02-14T15:38:52.007Z,96309.53
2023-02-14T15:41:18.425Z,96309.44
2023-02-14T15:43:44.801Z,96303.91
2023-02-14T15:46:11.205Z,96311.44
2023-02-14T15:48:37.636Z,96298.53
2023-02-14T15:51:04.050Z,96304.28
2023-02-14T15:53:30.420Z,96303.47
2023-02-14T15:55:56.802Z,96305.81
2023-02-14T15:58:23.204Z,96306.38
2023-02-14T16:00:49.594Z,96309.13
2023-02-14T16:03:15.995Z,96302.97
2023-02-14T16:05:42.399Z,96307.69
2023-02-14T16:08:08.836Z,96301.56
2023-02-14T16:10:35.237Z,96307.09
2023-02-14T16:13:01.616Z,96304.91
2023-02-14T16:15:28.035Z,96301.75
2023-02-14T16:17:54.427Z,96290.81
2023-02-14T16:20:20.813Z,96295.00
2023-02-14T16:22:47.210Z,96299.09
2023-02-14T16:25:13.602Z,96298.00
2023-02-14T16:27:39.989Z,96303.72
2023-02-14T16:30:06.473Z,96303.47
2023-02-14T16:32:33.043Z,96297.06
2023-02-14T16:34:59.550Z,96307.06
2023-02-14T16:37:25.926Z,96307.84
2023-02-14T16:39:52.308Z,96301.38
2023-02-14T16:42:18.681Z,96310.69
2023-02-14T16:44:45.054Z,96310.84
2023-02-14T16:47:11.448Z,96308.59
2023-02-14T16:49:37.826Z,96309.25
2023-02-14T16:52:04.215Z,96306.13
2023-02-14T16:54:30.633Z,96307.56
2023-02-14T16:56:57.062Z,96314.72
2023-02-14T16:59:23.458Z,96308.88
2023-02-14T17:01:50.141Z,96311.81
2023-02-14T17:04:16.577Z,96311.81
2023-02-14T17:06:42.960Z,96310.19
2023-02-14T17:09:09.398Z,96304.75
2023-02-14T17:11:35.803Z,96298.16
2023-02-14T17:14:02.221Z,96297.78
2023-02-14T17:16:28.608Z,96293.22
2023-02-14T17:18:54.986Z,96301.13
2023-02-14T17:21:21.384Z,96298.41
2023-02-14T17:23:47.840Z,96292.31
2023-02-14T17:26:14.283Z,96292.97
2023-02-14T17:28:40.806Z,96298.41
2023-02-14T17:31:07.604Z,96300.56
2023-02-14T17:33:34.321Z,96305.09
2023-02-14T17:36:00.753Z,96298.63
2023-02-14T17:38:27.174Z,96301.19
2023-02-14T17:40:53.563Z,96294.88
2023-02-14T17:43:19.988Z,96300.06
2023-02-14T17:45:46.398Z,96302.03
2023-02-14T17:48:12.776Z,96306.25
2023-02-14T17:50:39.174Z,96305.97
2023-02-14T17:53:05.581Z,96304.63
2023-02-14T17:55:31.989Z,96307.59
2023-02-14T17:57:58.368Z,96303.16
2023-02-14T18:00:24.797Z,96312.19
2023-02-14T18:02:51.214Z,96301.16
2023-02-14T18:05:17.635Z,96313.28
2023-02-14T18:07:44.054Z,96311.53
2023-02-14T18:10:10.471Z,96314.06
2023-02-14T18:12:36.942Z,96312.13
2023-02-14T18:15:03.333Z,96313.53
2023-02-14T18:17:29.690Z,96311.28
2023-02-14T18:19:56.131Z,96303.75
2023-02-14T18:22:22.498Z,96303.75
2023-02-14T18:24:48.889Z,96304.56
2023-02-14T18:27:15.276Z,96296.34
2023-02-14T18:29:41.660Z,96293.97
2023-02-14T18:32:08.096Z,96289.28
2023-02-14T18:34:34.527Z,96292.94
2023-02-14T18:37:00.906Z,96286.34
2023-02-14T18:39:27.294Z,96289.28
2023-02-14T18:41:53.781Z,96279.41
2023-02-14T18:44:20.208Z,96283.22
2023-02-14T18:46:46.568Z,96280.63
2023-02-14T18:49:12.972Z,96277.69
2023-02-14T18:51:39.400Z,96279.41
2023-02-14T18:54:05.871Z,96276.72
2023-02-14T18:56:32.245Z,96274.34
2023-02-14T18:58:58.654Z,96274.34
2023-02-14T19:01:25.129Z,96274.25
2023-02-14T19:03:51.549Z,96274.94
2023-02-14T19:06:17.961Z,96272.28
2023-02-14T19:08:44.352Z,96268.25
2023-02-14T19:11:10.795Z,96266.78
2023-02-14T19:13:37.185Z,96270.53
2023-02-14T19:16:03.589Z,96276.47
2023-02-14T19:18:30.039Z,96279.34
2023-02-14T19:20:56.421Z,96286.22
2023-02-14T19:23:22.848Z,96272.06
2023-02-14T19:25:49.379Z,96278.59
2023-02-14T19:28:16.236Z,96277.47
2023-02-14T19:30:42.649Z,96277.06
2023-02-14T19:33:09.049Z,96276.41
2023-02-14T19:35:35.434Z,96281.34
2023-02-14T19:38:01.819Z,96280.88
2023-02-14T19:40:29.063Z,96276.66
2023-02-14T19:42:55.460Z,96282.84
2023-02-14T19:45:21.859Z,96282.09
2023-02-14T19:47:48.406Z,96283.22
2023-02-14T19:50:14.840Z,96281.28
2023-02-14T19:52:41.332Z,96284.63
2023-02-14T19:55:07.733Z,96279.31
2023-02-14T19:57:34.121Z,96278.78
2023-02-14T20:00:00.580Z,96267.44
2023-02-14T20:02:27.011Z,96278.84
2023-02-14T20:04:53.487Z,96278.44
2023-02-14T20:07:19.880Z,96285.59
2023-02-14T20:09:46.252Z,96277.25
2023-02-14T20:12:12.656Z,96275.00
2023-02-14T20:14:50.824Z,96278.78
2023-02-14T20:17:17.501Z,96271.13
2023-02-14T20:19:43.879Z,96272.59
2023-02-14T20:22:10.280Z,96277.69
2023-02-14T20:24:36.660Z,96276.69
2023-02-14T20:27:03.073Z,96260.78
2023-02-14T20:29:29.485Z,96272.88
2023-02-14T20:31:55.934Z,96274.41
2023-02-14T20:34:22.381Z,96274.34
2023-02-14T20:36:48.819Z,96269.19
2023-02-14T20:39:15.213Z,96267.59
2023-02-14T20:41:41.605Z,96271.09
2023-02-14T20:44:08.039Z,96268.38
2023-02-14T20:46:34.475Z,96276.38
2023-02-14T20:49:00.870Z,96273.31
2023-02-14T20:51:27.284Z,96275.19
2023-02-14T20:53:53.680Z,96283.66
2023-02-14T20:56:20.109Z,96282.13
2023-02-14T20:58:46.504Z,96280.28
2023-02-14T21:01:12.941Z,96280.09
2023-02-14T21:03:39.399Z,96284.13
2023-02-14T21:06:05.795Z,96279.38
2023-02-14T21:08:32.197Z,96272.63
2023-02-14T21:10:58.820Z,96270.41
2023-02-14T21:13:25.324Z,96274.78
2023-02-14T21:15:51.734Z,96274.25
2023-02-14T21:18:18.122Z,96277.66
2023-02-14T21:20:44.549Z,96274.25
2023-02-14T21:23:10.923Z,96275.78
2023-02-14T21:25:37.389Z,96267.34
2023-02-14T21:28:03.775Z,96268.72
2023-02-14T21:30:30.299Z,96265.75
2023-02-14T21:32:56.699Z,96270.69
2023-02-14T21:35:23.073Z,96269.84
2023-02-14T21:37:49.478Z,96275.47
2023-02-14T21:40:15.850Z,96271.72
2023-02-14T21:42:42.261Z,96272.81
2023-02-14T21:45:08.626Z,96267.97
2023-02-14T21:47:35.052Z,96267.47
2023-02-14T21:50:01.426Z,96268.59
2023-02-14T21:52:27.804Z,96271.50
2023-02-14T21:54:54.175Z,96259.56
2023-02-14T21:57:20.529Z,96256.94
2023-02-14T21:59:46.925Z,96263.31
2023-02-14T22:02:13.317Z,96259.91
2023-02-14T22:04:39.733Z,96264.78
2023-02-14T22:07:06.113Z,96260.69
2023-02-14T22:09:32.558Z,96259.25
2023-02-14T22:11:58.932Z,96245.28
2023-02-14T22:14:25.333Z,96240.75
2023-02-14T22:16:51.746Z,96233.09
2023-02-14T22:19:18.148Z,96236.63
2023-02-14T22:21:44.563Z,96238.16
2023-02-14T22:24:10.923Z,96242.91
2023-02-14T22:26:37.317Z,96242.16
2023-02-14T22:29:03.737Z,96239.84
2023-02-14T22:31:30.220Z,96234.50
2023-02-14T22:33:56.656Z,96238.41
2023-02-14T22:36:23.064Z,96231.25
2023-02-14T22:38:49.505Z,96232.19
2023-02-14T22:41:15.878Z,96233.72
2023-02-14T22:43:42.261Z,96232.78
2023-02-14T22:46:08.660Z,96231.59
2023-02-14T22:48:35.045Z,96242.59
2023-02-14T22:51:01.428Z,96227.84
2023-02-14T22:53:27.859Z,96234.84
2023-02-14T22:55:54.250Z,96229.31
2023-02-14T22:58:20.670Z,96236.53
2023-02-14T23:00:47.100Z,96240.28
2023-02-14T23:03:13.498Z,96237.31
2023-02-14T23:05:39.891Z,96238.16
2023-02-14T23:08:06.244Z,96241.22
2023-02-14T23:10:32.806Z,96241.97
2023-02-14T23:12:59.181Z,96239.59
2023-02-14T23:15:25.549Z,96245.56
2023-02-14T23:17:51.943Z,96244.03
2023-02-14T23:20:18.300Z,96241.47
2023-02-14T23:22:44.709Z,96243.69
2023-02-14T23:25:11.139Z,96240.19
2023-02-14T23:27:37.553Z,96233.38
2023-02-14T23:30:04.013Z,96237.13
2023-02-14T23:32:30.427Z,96226.47
2023-02-14T23:34:56.928Z,96232.44
2023-02-14T23:37:23.305Z,96239.91
2023-02-14T23:39:49.744Z,96229.38
2023-02-14T23:42:16.156Z,96233.28
2023-02-14T23:44:42.566Z,96225.81
2023-02-14T23:47:08.953Z,96228.28
2023-02-14T23:49:35.329Z,96231.22
2023-02-14T23:52:01.751Z,96229.47
2023-02-14T23:54:28.126Z,96234.06
2023-02-14T23:56:54.523Z,96238.97
2023-02-14T23:59:20.907Z,96231.41
